createdAt,value
2022-09-10T00:01:36.817Z,93.31
2022-09-10T00:04:10.883Z,93.47
2022-09-10T00:06:39.381Z,93.51
2022-09-10T00:09:08.730Z,93.61
2022-09-10T00:11:39.066Z,93.75
2022-09-10T00:14:11.996Z,93.80
2022-09-10T00:16:40.573Z,93.72
2022-09-10T00:19:09.075Z,93.88
2022-09-10T00:21:37.503Z,93.83
2022-09-10T00:24:06.677Z,93.91
2022-09-10T00:26:42.275Z,93.91
2022-09-10T00:29:16.918Z,94.10
2022-09-10T00:31:45.684Z,94.16
2022-09-10T00:34:14.293Z,94.25
2022-09-10T00:36:43.753Z,94.16
2022-09-10T00:39:14.096Z,94.14
2022-09-10T00:41:45.475Z,94.33
2022-09-10T00:44:51.311Z,94.26
2022-09-10T00:47:24.435Z,94.37
2022-09-10T00:49:58.201Z,94.52
2022-09-10T00:52:28.785Z,94.44
2022-09-10T00:54:58.755Z,94.52
2022-09-10T00:57:29.095Z,94.46
2022-09-10T01:00:01.895Z,94.59
2022-09-10T01:02:30.457Z,94.75
2022-09-10T01:05:00.054Z,94.77
2022-09-10T01:07:30.279Z,94.78
2022-09-10T01:10:01.100Z,94.77
2022-09-10T01:12:50.601Z,94.60
2022-09-10T01:15:30.311Z,94.62
2022-09-10T01:18:11.007Z,94.50
2022-09-10T01:21:14.661Z,94.56
2022-09-10T01:24:43.759Z,94.63
2022-09-10T01:27:29.054Z,94.60
2022-09-10T01:30:05.817Z,94.48
2022-09-10T01:32:44.502Z,94.51
2022-09-10T01:35:17.379Z,94.35
2022-09-10T01:37:51.308Z,94.37
2022-09-10T01:40:29.025Z,94.35
2022-09-10T01:43:06.503Z,94.35
2022-09-10T01:45:49.079Z,94.46
2022-09-10T01:48:34.633Z,94.46
2022-09-10T01:51:10.332Z,94.38
2022-09-10T01:53:55.890Z,94.44
2022-09-10T01:56:37.583Z,94.45
2022-09-10T01:59:16.100Z,94.38
2022-09-10T02:01:48.721Z,94.42
2022-09-10T02:04:19.409Z,94.48
2022-09-10T02:06:50.604Z,94.44
2022-09-10T02:09:19.740Z,94.35
2022-09-10T02:11:50.251Z,94.33
2022-09-10T02:14:35.414Z,94.36
2022-09-10T02:17:14.637Z,94.41
2022-09-10T02:19:45.674Z,94.45
2022-09-10T02:22:14.753Z,94.57
2022-09-10T02:24:43.995Z,94.51
2022-09-10T02:27:13.928Z,94.47
2022-09-10T02:29:42.577Z,94.50
2022-09-10T02:32:11.316Z,94.56
2022-09-10T02:34:39.718Z,94.60
2022-09-10T02:37:08.274Z,94.54
2022-09-10T02:39:37.881Z,94.53
2022-09-10T02:42:07.218Z,94.59
2022-09-10T02:44:36.333Z,94.53
2022-09-10T02:47:05.674Z,94.77
2022-09-10T02:49:34.453Z,94.58
2022-09-10T02:52:03.959Z,94.58
2022-09-10T02:54:32.792Z,94.65
2022-09-10T02:57:01.179Z,94.80
2022-09-10T02:59:30.322Z,94.74
2022-09-10T03:01:59.297Z,94.74
2022-09-10T03:04:28.063Z,94.65
2022-09-10T03:06:56.473Z,94.59
2022-09-10T03:09:28.334Z,94.68
2022-09-10T03:11:56.881Z,94.63
2022-09-10T03:14:25.381Z,94.63
2022-09-10T03:16:54.674Z,94.66
2022-09-10T03:19:26.065Z,94.52
2022-09-10T03:21:54.420Z,94.53
2022-09-10T03:24:24.612Z,94.59
2022-09-10T03:26:53.203Z,94.51
2022-09-10T03:29:23.324Z,94.63
2022-09-10T03:31:51.984Z,94.53
2022-09-10T03:34:21.395Z,94.52
2022-09-10T03:36:50.857Z,94.50
2022-09-10T03:39:19.258Z,94.53
2022-09-10T03:41:47.803Z,94.71
2022-09-10T03:44:16.729Z,94.66
2022-09-10T03:46:48.011Z,94.49
2022-09-10T03:49:18.127Z,94.50
2022-09-10T03:51:47.892Z,94.56
2022-09-10T03:54:17.182Z,94.53
2022-09-10T03:56:45.924Z,94.65
2022-09-10T03:59:14.381Z,94.49
2022-09-10T04:01:44.640Z,94.55
2022-09-10T04:04:14.335Z,94.63
2022-09-10T04:06:43.956Z,94.66
2022-09-10T04:09:12.515Z,94.63
2022-09-10T04:11:41.762Z,94.55
2022-09-10T04:14:10.453Z,94.61
2022-09-10T04:16:41.426Z,94.54
2022-09-10T04:19:12.535Z,94.61
2022-09-10T04:21:41.450Z,94.51
2022-09-10T04:24:12.121Z,94.61
2022-09-10T04:26:40.582Z,94.85
2022-09-10T04:29:09.001Z,94.86
2022-09-10T04:31:38.262Z,94.98
2022-09-10T04:34:12.303Z,94.93
2022-09-10T04:36:41.068Z,95.06
2022-09-10T04:39:10.416Z,95.18
2022-09-10T04:41:39.706Z,95.21
2022-09-10T04:44:09.283Z,95.16
2022-09-10T04:46:38.129Z,95.32
2022-09-10T04:49:10.770Z,95.39
2022-09-10T04:51:39.378Z,95.41
2022-09-10T04:54:08.219Z,95.58
2022-09-10T04:56:38.664Z,95.59
2022-09-10T04:59:07.270Z,95.73
2022-09-10T05:01:38.415Z,95.72
2022-09-10T05:04:07.539Z,95.75
2022-09-10T05:06:38.349Z,95.68
2022-09-10T05:09:09.151Z,95.80
2022-09-10T05:11:37.602Z,95.85
2022-09-10T05:14:07.077Z,95.78
2022-09-10T05:16:36.746Z,95.87
2022-09-10T05:19:05.683Z,95.91
2022-09-10T05:21:37.999Z,95.96
2022-09-10T05:24:07.305Z,95.87
2022-09-10T05:26:35.894Z,95.95
2022-09-10T05:29:04.571Z,95.93
2022-09-10T05:31:33.264Z,95.94
2022-09-10T05:34:01.921Z,95.95
2022-09-10T05:36:32.109Z,96.01
2022-09-10T05:39:02.637Z,96.05
2022-09-10T05:41:32.455Z,96.02
2022-09-10T05:44:02.459Z,96.06
2022-09-10T05:46:32.408Z,96.00
2022-09-10T05:49:07.985Z,96.03
2022-09-10T05:51:36.487Z,95.92
2022-09-10T05:54:06.001Z,95.95
2022-09-10T05:56:34.654Z,95.75
2022-09-10T05:59:03.826Z,95.96
2022-09-10T06:01:33.371Z,95.95
2022-09-10T06:04:04.090Z,95.72
2022-09-10T06:06:32.944Z,95.84
2022-09-10T06:09:09.009Z,95.96
2022-09-10T06:11:56.849Z,95.90
2022-09-10T06:14:25.840Z,95.96
2022-09-10T06:16:55.235Z,95.91
2022-09-10T06:19:24.832Z,95.99
2022-09-10T06:21:53.318Z,95.96
2022-09-10T06:24:23.060Z,95.93
2022-09-10T06:26:53.884Z,95.94
2022-09-10T06:29:24.136Z,95.94
2022-09-10T06:31:52.993Z,95.96
2022-09-10T06:34:22.023Z,96.01
2022-09-10T06:36:50.935Z,96.01
2022-09-10T06:39:19.719Z,96.16
2022-09-10T06:41:54.941Z,96.15
2022-09-10T06:44:59.542Z,96.17
2022-09-10T06:48:34.753Z,95.99
2022-09-10T06:50:52.489Z,96.17
2022-09-10T06:53:21.895Z,96.19
2022-09-10T06:55:52.281Z,96.15
2022-09-10T06:58:23.937Z,96.19
2022-09-10T07:00:53.288Z,96.08
2022-09-10T07:03:23.549Z,95.90
2022-09-10T07:05:55.048Z,96.06
2022-09-10T07:08:26.553Z,96.22
2022-09-10T07:11:00.847Z,96.28
2022-09-10T07:13:29.331Z,96.16
2022-09-10T07:15:57.936Z,96.19
2022-09-10T07:18:28.149Z,96.33
2022-09-10T07:21:07.680Z,96.12
2022-09-10T07:23:36.103Z,96.12
2022-09-10T07:26:54.498Z,96.11
2022-09-10T07:29:23.418Z,96.35
2022-09-10T07:31:53.508Z,96.16
2022-09-10T07:34:24.934Z,96.21
2022-09-10T07:36:56.306Z,96.14
2022-09-10T07:39:26.317Z,96.19
2022-09-10T07:41:57.370Z,96.13
2022-09-10T07:44:29.257Z,96.31
2022-09-10T07:47:02.829Z,96.39
2022-09-10T07:49:32.010Z,96.38
2022-09-10T07:52:00.714Z,96.37
2022-09-10T07:54:37.513Z,96.30
2022-09-10T07:57:06.492Z,96.30
2022-09-10T07:59:36.605Z,96.37
2022-09-10T08:02:06.017Z,96.14
2022-09-10T08:04:37.137Z,96.28
2022-09-10T08:07:08.566Z,96.37
2022-09-10T08:09:38.862Z,96.23
2022-09-10T08:12:09.375Z,96.24
2022-09-10T08:14:37.783Z,96.23
2022-09-10T08:17:07.193Z,96.30
2022-09-10T08:19:39.697Z,96.30
2022-09-10T08:22:12.809Z,96.16
2022-09-10T08:24:47.287Z,96.02
2022-09-10T08:27:16.836Z,95.97
2022-09-10T08:29:45.666Z,95.89
2022-09-10T08:32:15.269Z,95.98
2022-09-10T08:34:43.889Z,95.94
2022-09-10T08:37:13.982Z,96.10
2022-09-10T08:39:42.641Z,96.06
2022-09-10T08:42:19.159Z,95.97
2022-09-10T08:44:53.442Z,95.94
2022-09-10T08:47:32.864Z,95.67
2022-09-10T08:50:13.091Z,95.66
2022-09-10T08:52:48.352Z,95.87
2022-09-10T08:55:29.337Z,95.93
2022-09-10T08:58:03.314Z,95.76
2022-09-10T09:00:37.381Z,95.48
2022-09-10T09:03:16.580Z,95.28
2022-09-10T09:05:49.261Z,94.75
2022-09-10T09:08:21.495Z,94.70
2022-09-10T09:10:55.363Z,94.57
2022-09-10T09:13:45.140Z,94.50
2022-09-10T09:16:28.478Z,94.42
2022-09-10T09:19:09.969Z,94.26
2022-09-10T09:21:50.291Z,94.10
2022-09-10T09:24:24.243Z,94.08
2022-09-10T09:27:09.697Z,94.15
2022-09-10T09:29:48.060Z,93.91
2022-09-10T09:32:20.329Z,93.93
2022-09-10T09:34:52.035Z,94.04
2022-09-10T09:37:23.808Z,94.05
2022-09-10T09:40:03.566Z,94.05
2022-09-10T09:42:43.752Z,94.07
2022-09-10T09:45:23.606Z,94.06
2022-09-10T09:47:53.862Z,94.10
2022-09-10T09:50:22.588Z,94.04
2022-09-10T09:52:55.687Z,94.13
2022-09-10T09:55:32.912Z,94.23
2022-09-10T09:58:29.131Z,94.13
2022-09-10T10:01:12.446Z,94.24
2022-09-10T10:03:48.037Z,94.23
2022-09-10T10:06:19.012Z,94.28
2022-09-10T10:08:55.636Z,94.33
2022-09-10T10:11:40.370Z,94.23
2022-09-10T10:14:40.839Z,94.37
2022-09-10T10:17:29.732Z,94.45
2022-09-10T10:20:06.697Z,94.43
2022-09-10T10:22:36.422Z,94.59
2022-09-10T10:25:26.770Z,94.75
2022-09-10T10:27:55.933Z,94.83
2022-09-10T10:30:25.056Z,94.91
2022-09-10T10:32:55.745Z,95.02
2022-09-10T10:35:40.725Z,95.24
2022-09-10T10:38:31.568Z,95.38
2022-09-10T10:41:39.885Z,95.55
2022-09-10T10:44:33.489Z,95.62
2022-09-10T10:47:18.165Z,95.64
2022-09-10T10:49:56.861Z,95.62
2022-09-10T10:52:35.959Z,95.88
2022-09-10T10:56:06.469Z,95.86
2022-09-10T11:09:41.098Z,95.01
2022-09-10T11:12:18.013Z,94.77
2022-09-10T11:14:58.806Z,94.92
2022-09-10T11:17:39.909Z,94.83
2022-09-10T11:20:28.357Z,94.82
2022-09-10T11:23:14.847Z,95.07
2022-09-10T11:25:58.958Z,95.15
2022-09-10T11:28:37.495Z,95.14
2022-09-10T11:31:16.324Z,95.34
2022-09-10T11:33:59.243Z,95.55
2022-09-10T11:36:39.393Z,95.57
2022-09-10T11:39:19.604Z,95.66
2022-09-10T11:41:55.820Z,95.59
2022-09-10T11:44:42.750Z,95.67
2022-09-10T11:47:20.533Z,95.79
2022-09-10T11:50:01.245Z,95.77
2022-09-10T11:52:36.026Z,95.90
2022-09-10T11:55:14.785Z,95.85
2022-09-10T11:58:04.740Z,95.88
2022-09-10T12:00:49.376Z,95.80
2022-09-10T12:03:41.233Z,96.03
2022-09-10T12:06:22.367Z,95.90
2022-09-10T12:09:07.590Z,95.85
2022-09-10T12:11:51.365Z,96.00
2022-09-10T12:14:23.438Z,96.10
2022-09-10T12:16:59.392Z,96.13
2022-09-10T12:19:36.703Z,96.23
2022-09-10T12:22:18.338Z,96.31
2022-09-10T12:24:56.726Z,96.15
2022-09-10T12:27:47.221Z,96.16
2022-09-10T12:31:02.952Z,96.35
2022-09-10T12:34:16.452Z,96.30
2022-09-10T12:37:24.200Z,96.23
2022-09-10T12:40:32.173Z,96.21
2022-09-10T12:43:40.313Z,96.16
2022-09-10T12:46:24.470Z,96.16
2022-09-10T12:49:12.989Z,96.22
2022-09-10T12:51:58.641Z,96.30
2022-09-10T12:54:55.865Z,96.38
2022-09-10T12:57:38.536Z,96.43
2022-09-10T13:00:23.238Z,96.26
2022-09-10T13:02:59.242Z,96.25
2022-09-10T13:05:36.730Z,96.55
2022-09-10T13:08:20.553Z,96.44
2022-09-10T13:11:15.859Z,96.37
2022-09-10T13:13:54.822Z,96.35
2022-09-10T13:16:41.979Z,96.34
2022-09-10T13:19:50.045Z,96.37
2022-09-10T13:22:58.014Z,96.13
2022-09-10T13:25:44.679Z,96.22
2022-09-10T13:28:52.308Z,96.12
2022-09-10T13:31:28.594Z,95.94
2022-09-10T13:34:47.272Z,96.03
2022-09-10T13:37:37.357Z,96.08
2022-09-10T13:40:34.859Z,96.02
2022-09-10T13:43:19.167Z,96.05
2022-09-10T13:45:55.251Z,95.84
2022-09-10T13:48:30.851Z,95.70
2022-09-10T13:51:16.438Z,95.81
2022-09-10T13:53:50.129Z,95.68
2022-09-10T13:56:26.190Z,95.55
2022-09-10T13:59:02.183Z,95.44
2022-09-10T14:01:56.841Z,95.50
2022-09-10T14:04:31.962Z,95.32
2022-09-10T14:07:13.178Z,95.34
2022-09-10T14:09:47.106Z,95.31
2022-09-10T14:12:26.227Z,95.36
2022-09-10T14:15:01.541Z,95.55
2022-09-10T14:17:39.025Z,95.60
2022-09-10T14:20:23.610Z,95.52
2022-09-10T14:23:02.489Z,95.44
2022-09-10T14:25:36.915Z,95.41
2022-09-10T14:28:24.253Z,95.61
2022-09-10T14:31:21.657Z,95.45
2022-09-10T14:33:53.915Z,95.71
2022-09-10T14:36:34.826Z,95.66
2022-09-10T14:39:16.419Z,95.82
2022-09-10T14:41:49.465Z,95.92
2022-09-10T14:44:31.514Z,95.69
2022-09-10T14:47:14.581Z,95.91
2022-09-10T14:49:47.231Z,95.90
2022-09-10T14:52:20.207Z,95.95
2022-09-10T14:54:52.322Z,95.88
2022-09-10T14:57:24.337Z,95.92
2022-09-10T14:59:57.837Z,96.07
2022-09-10T15:02:30.949Z,95.86
2022-09-10T15:05:07.787Z,95.80
2022-09-10T15:07:43.058Z,95.63
2022-09-10T15:10:15.385Z,95.46
2022-09-10T15:12:52.185Z,95.43
2022-09-10T15:15:25.083Z,95.51
2022-09-10T15:17:57.966Z,95.71
2022-09-10T15:20:33.387Z,95.70
2022-09-10T15:23:05.287Z,95.72
2022-09-10T15:25:41.594Z,95.45
2022-09-10T15:28:13.639Z,95.44
2022-09-10T15:30:45.580Z,95.35
2022-09-10T15:33:17.982Z,95.23
2022-09-10T15:35:50.048Z,95.26
2022-09-10T15:38:22.258Z,95.23
2022-09-10T15:40:56.530Z,95.28
2022-09-10T15:43:28.549Z,95.24
2022-09-10T15:46:04.189Z,95.16
2022-09-10T15:48:36.891Z,95.32
2022-09-10T15:51:13.897Z,95.31
2022-09-10T15:53:49.009Z,95.21
2022-09-10T15:56:24.359Z,95.34
2022-09-10T15:58:57.988Z,95.33
2022-09-10T16:01:36.726Z,95.30
2022-09-10T16:04:09.908Z,95.25
2022-09-10T16:06:42.144Z,95.15
2022-09-10T16:09:15.367Z,95.12
2022-09-10T16:11:48.280Z,95.16
2022-09-10T16:14:20.893Z,95.12
2022-09-10T16:16:56.323Z,95.15
2022-09-10T16:19:29.569Z,95.28
2022-09-10T16:22:01.433Z,95.32
2022-09-10T16:24:33.533Z,95.36
2022-09-10T16:27:05.854Z,95.21
2022-09-10T16:29:40.091Z,95.45
2022-09-10T16:32:12.921Z,95.35
2022-09-10T16:34:45.082Z,95.34
2022-09-10T16:37:17.421Z,95.39
2022-09-10T16:39:49.337Z,95.36
2022-09-10T16:42:21.182Z,95.40
2022-09-10T16:44:52.969Z,95.51
2022-09-10T16:47:25.528Z,95.48
2022-09-10T16:49:57.401Z,95.41
2022-09-10T16:52:30.919Z,95.45
2022-09-10T16:55:04.834Z,95.43
2022-09-10T16:57:36.863Z,95.57
2022-09-10T17:00:11.083Z,95.49
2022-09-10T17:02:43.470Z,95.51
2022-09-10T17:05:15.674Z,95.50
2022-09-10T17:07:49.298Z,95.55
2022-09-10T17:10:23.513Z,95.60
2022-09-10T17:12:55.730Z,95.55
2022-09-10T17:15:30.206Z,95.61
2022-09-10T17:18:02.126Z,95.54
2022-09-10T17:20:35.672Z,95.61
2022-09-10T17:23:09.224Z,95.69
2022-09-10T17:25:41.172Z,95.76
2022-09-10T17:28:16.287Z,95.82
2022-09-10T17:30:50.986Z,96.00
2022-09-10T17:33:29.443Z,96.06
2022-09-10T17:36:03.573Z,96.22
2022-09-10T17:38:36.879Z,96.17
2022-09-10T17:41:14.628Z,96.18
2022-09-10T17:43:47.167Z,96.14
2022-09-10T17:46:23.482Z,96.11
2022-09-10T17:48:56.658Z,96.16
2022-09-10T17:51:30.913Z,96.12
2022-09-10T17:54:05.800Z,95.98
2022-09-10T17:56:43.652Z,95.93
2022-09-10T17:59:16.836Z,96.03
2022-09-10T18:01:52.493Z,96.00
2022-09-10T18:04:27.758Z,95.91
2022-09-10T18:07:01.273Z,95.94
2022-09-10T18:09:33.134Z,96.01
2022-09-10T18:12:05.877Z,95.88
2022-09-10T18:14:38.595Z,95.95
2022-09-10T18:17:10.546Z,96.07
2022-09-10T18:19:42.581Z,95.99
2022-09-10T18:22:14.928Z,96.17
2022-09-10T18:24:47.188Z,96.09
2022-09-10T18:27:18.963Z,95.99
2022-09-10T18:29:51.660Z,96.06
2022-09-10T18:32:26.208Z,96.16
2022-09-10T18:34:58.512Z,96.12
2022-09-10T18:37:31.353Z,96.30
2022-09-10T18:40:14.455Z,96.27
2022-09-10T18:42:51.328Z,96.29
2022-09-10T18:45:50.973Z,96.36
2022-09-10T18:48:33.106Z,96.38
2022-09-10T18:51:08.587Z,96.21
2022-09-10T18:53:45.885Z,96.34
2022-09-10T18:56:21.360Z,96.35
2022-09-10T18:58:55.778Z,96.16
2022-09-10T19:02:30.489Z,96.14
2022-09-10T19:06:08.250Z,96.00
2022-09-10T19:08:44.964Z,96.12
2022-09-10T19:11:19.042Z,96.05
2022-09-10T19:13:52.963Z,96.01
2022-09-10T19:16:27.903Z,95.99
2022-09-10T19:19:01.520Z,96.04
2022-09-10T19:21:36.782Z,96.15
2022-09-10T19:24:54.472Z,96.05
2022-09-10T19:27:41.316Z,96.10
2022-09-10T19:30:15.430Z,96.12
2022-09-10T19:32:47.394Z,96.02
2022-09-10T19:35:20.121Z,95.92
2022-09-10T19:38:36.764Z,95.99
2022-09-10T19:41:18.929Z,96.00
2022-09-10T19:43:52.522Z,96.09
2022-09-10T19:46:28.408Z,96.01
2022-09-10T19:49:01.539Z,95.97
2022-09-10T19:51:35.936Z,96.00
2022-09-10T19:54:12.050Z,95.83
2022-09-10T19:56:44.424Z,95.82
2022-09-10T19:59:16.287Z,95.85
2022-09-10T20:01:48.815Z,95.75
2022-09-10T20:04:20.748Z,95.93
2022-09-10T20:06:52.925Z,95.79
2022-09-10T20:09:24.741Z,95.89
2022-09-10T20:11:57.177Z,95.87
2022-09-10T20:14:29.359Z,95.82
2022-09-10T20:17:01.725Z,95.82
2022-09-10T20:19:33.590Z,95.83
2022-09-10T20:22:05.591Z,95.85
2022-09-10T20:24:37.913Z,95.76
2022-09-10T20:27:10.146Z,95.89
2022-09-10T20:29:43.347Z,95.79
2022-09-10T20:32:15.306Z,95.78
2022-09-10T20:34:47.434Z,95.82
2022-09-10T20:37:19.624Z,95.92
2022-09-10T20:39:51.952Z,96.01
2022-09-10T20:42:25.485Z,96.12
2022-09-10T20:44:57.535Z,96.10
2022-09-10T20:47:31.510Z,95.97
2022-09-10T20:50:03.304Z,96.28
2022-09-10T20:52:35.367Z,96.25
2022-09-10T20:55:08.786Z,96.15
2022-09-10T20:57:40.537Z,96.34
2022-09-10T21:00:15.247Z,96.25
2022-09-10T21:02:48.146Z,96.17
2022-09-10T21:05:21.089Z,96.04
2022-09-10T21:07:53.054Z,96.17
2022-09-10T21:10:24.876Z,96.17
2022-09-10T21:13:05.178Z,96.33
2022-09-10T21:15:38.119Z,96.47
2022-09-10T21:18:10.458Z,96.53
2022-09-10T21:20:42.430Z,96.47
2022-09-10T21:23:14.196Z,96.72
2022-09-10T21:25:53.639Z,96.69
2022-09-10T21:28:27.225Z,96.67
2022-09-10T21:31:05.158Z,96.79
2022-09-10T21:33:37.910Z,96.62
2022-09-10T21:36:12.401Z,96.70
2022-09-10T21:38:47.422Z,96.86
2022-09-10T21:41:24.339Z,96.65
2022-09-10T21:43:56.295Z,96.75
2022-09-10T21:46:29.529Z,96.74
2022-09-10T21:49:02.351Z,96.73
2022-09-10T21:51:34.500Z,96.77
2022-09-10T21:54:06.717Z,96.90
2022-09-10T21:56:38.463Z,96.71
2022-09-10T21:59:13.073Z,96.61
2022-09-10T22:01:46.875Z,96.70
2022-09-10T22:04:22.776Z,96.75
2022-09-10T22:06:56.725Z,96.71
2022-09-10T22:09:28.485Z,96.58
2022-09-10T22:12:00.325Z,96.72
2022-09-10T22:14:33.313Z,96.69
2022-09-10T22:17:05.562Z,96.59
2022-09-10T22:19:37.680Z,96.68
2022-09-10T22:22:11.290Z,96.69
2022-09-10T22:24:43.100Z,96.60
2022-09-10T22:27:14.984Z,96.57
2022-09-10T22:29:46.925Z,96.54
2022-09-10T22:32:19.633Z,96.59
2022-09-10T22:34:51.818Z,96.69
2022-09-10T22:37:23.551Z,96.64
2022-09-10T22:39:55.350Z,96.71
2022-09-10T22:42:27.321Z,96.75
2022-09-10T22:45:00.920Z,96.69
2022-09-10T22:47:33.053Z,96.64
2022-09-10T22:50:05.368Z,96.63
2022-09-10T22:52:38.363Z,96.68
2022-09-10T22:55:12.578Z,96.74
2022-09-10T22:57:45.291Z,96.74
2022-09-10T23:00:17.731Z,97.06
2022-09-10T23:02:49.593Z,96.96
2022-09-10T23:05:22.068Z,96.96
2022-09-10T23:07:53.904Z,97.09
2022-09-10T23:10:26.461Z,97.07
2022-09-10T23:12:59.446Z,97.24
2022-09-10T23:15:34.730Z,97.22
2022-09-10T23:18:06.655Z,97.10
2022-09-10T23:20:38.555Z,97.34
2022-09-10T23:23:10.580Z,97.33
2022-09-10T23:25:43.571Z,97.39
2022-09-10T23:28:15.421Z,97.46
2022-09-10T23:30:47.176Z,97.54
2022-09-10T23:33:19.352Z,97.37
2022-09-10T23:35:53.568Z,97.66
2022-09-10T23:38:26.060Z,97.60
2022-09-10T23:40:59.255Z,97.55
2022-09-10T23:43:31.466Z,97.57
2022-09-10T23:46:03.887Z,97.58
2022-09-10T23:48:36.035Z,97.63
2022-09-10T23:51:08.983Z,97.73
2022-09-10T23:53:41.013Z,97.58
2022-09-10T23:56:13.203Z,97.65
2022-09-10T23:58:45.255Z,97.69
